createdAt,value
2022-08-17T00:02:25.517Z,55.79
2022-08-17T00:04:55.525Z,55.46
2022-08-17T00:07:23.246Z,56.08
2022-08-17T00:09:50.522Z,55.93
2022-08-17T00:12:41.997Z,55.92
2022-08-17T00:15:08.282Z,55.81
2022-08-17T00:17:38.205Z,55.64
2022-08-17T00:20:06.657Z,55.49
2022-08-17T00:22:36.568Z,55.56
2022-08-17T00:25:17.259Z,55.93
2022-08-17T00:27:44.632Z,55.82
2022-08-17T00:30:13.116Z,55.39
2022-08-17T00:33:12.681Z,55.81
2022-08-17T00:35:33.893Z,55.95
2022-08-17T00:38:01.310Z,56.06
2022-08-17T00:40:44.292Z,56.01
2022-08-17T00:43:17.622Z,56.21
2022-08-17T00:45:45.764Z,56.17
2022-08-17T00:48:29.454Z,56.01
2022-08-17T00:51:12.016Z,56.09
2022-08-17T00:53:44.174Z,56.02
2022-08-17T00:56:19.418Z,56.07
2022-08-17T00:58:48.587Z,55.91
2022-08-17T01:01:21.644Z,55.85
2022-08-17T01:03:51.853Z,55.98
2022-08-17T01:06:20.915Z,56.12
2022-08-17T01:08:57.304Z,55.85
2022-08-17T01:11:26.223Z,55.73
2022-08-17T01:13:53.715Z,55.83
2022-08-17T01:16:28.390Z,55.78
2022-08-17T01:19:05.231Z,55.87
2022-08-17T01:21:46.505Z,55.61
2022-08-17T01:24:14.588Z,55.63
2022-08-17T01:26:43.436Z,55.89
2022-08-17T01:29:12.672Z,55.84
2022-08-17T01:31:45.655Z,55.46
2022-08-17T01:34:15.954Z,55.72
2022-08-17T01:36:45.923Z,55.42
2022-08-17T01:39:32.912Z,55.66
2022-08-17T01:42:33.532Z,55.56
2022-08-17T01:45:11.707Z,55.50
2022-08-17T01:47:38.992Z,55.54
2022-08-17T01:50:11.899Z,55.59
2022-08-17T01:52:40.238Z,55.33
2022-08-17T01:55:09.167Z,55.64
2022-08-17T01:57:36.568Z,55.29
2022-08-17T02:00:09.675Z,55.38
2022-08-17T02:02:38.533Z,55.23
2022-08-17T02:05:07.211Z,55.18
2022-08-17T02:07:48.020Z,55.35
2022-08-17T02:10:24.208Z,55.37
2022-08-17T02:13:03.561Z,55.27
2022-08-17T02:15:31.043Z,55.36
2022-08-17T02:17:58.553Z,55.35
2022-08-17T02:20:41.316Z,55.04
2022-08-17T02:23:12.873Z,54.90
2022-08-17T02:25:43.890Z,55.00
2022-08-17T02:28:11.380Z,55.17
2022-08-17T02:30:59.759Z,55.13
2022-08-17T02:33:42.070Z,54.97
2022-08-17T02:36:12.819Z,54.73
2022-08-17T02:38:41.488Z,54.69
2022-08-17T02:41:09.115Z,54.58
2022-08-17T02:43:36.797Z,54.61
2022-08-17T02:46:04.176Z,54.63
2022-08-17T02:48:32.118Z,54.77
2022-08-17T02:51:00.859Z,54.39
2022-08-17T02:53:33.685Z,54.48
2022-08-17T02:56:03.962Z,54.53
2022-08-17T02:58:34.405Z,54.18
2022-08-17T03:01:07.535Z,54.10
2022-08-17T03:03:36.660Z,54.11
2022-08-17T03:06:04.766Z,54.08
2022-08-17T03:08:32.158Z,54.08
2022-08-17T03:10:59.767Z,54.01
2022-08-17T03:13:27.600Z,53.59
2022-08-17T03:15:54.998Z,53.87
2022-08-17T03:18:25.503Z,53.49
2022-08-17T03:20:56.631Z,53.64
2022-08-17T03:23:25.424Z,52.52
2022-08-17T03:25:54.133Z,52.13
2022-08-17T03:28:22.125Z,52.09
2022-08-17T03:30:51.322Z,51.90
2022-08-17T03:33:20.026Z,51.41
2022-08-17T03:35:50.350Z,51.54
2022-08-17T03:38:18.398Z,51.86
2022-08-17T03:40:57.313Z,51.43
2022-08-17T03:43:29.283Z,51.20
2022-08-17T03:46:34.113Z,51.39
2022-08-17T03:49:25.662Z,51.20
2022-08-17T03:52:16.110Z,51.07
2022-08-17T03:55:02.902Z,50.86
2022-08-17T03:57:31.548Z,50.77
2022-08-17T03:59:59.842Z,50.73
2022-08-17T04:02:30.021Z,50.57
2022-08-17T04:04:58.293Z,50.84
2022-08-17T04:07:29.288Z,50.29
2022-08-17T04:09:59.647Z,50.28
2022-08-17T04:12:30.851Z,49.90
2022-08-17T04:14:58.984Z,50.00
2022-08-17T04:17:28.302Z,49.95
2022-08-17T04:19:56.638Z,50.29
2022-08-17T04:22:32.844Z,50.27
2022-08-17T04:25:05.393Z,50.17
2022-08-17T04:27:32.769Z,49.71
2022-08-17T04:30:00.615Z,49.33
2022-08-17T04:33:04.351Z,49.65
2022-08-17T04:35:26.409Z,49.38
2022-08-17T04:37:53.808Z,49.30
2022-08-17T04:40:41.167Z,49.31
2022-08-17T04:43:11.808Z,49.39
2022-08-17T04:45:55.580Z,49.22
2022-08-17T04:48:27.981Z,48.88
2022-08-17T04:51:05.071Z,49.08
2022-08-17T04:53:32.609Z,48.71
2022-08-17T04:55:59.852Z,48.29
2022-08-17T04:58:27.153Z,48.22
2022-08-17T05:00:54.637Z,48.25
2022-08-17T05:03:22.123Z,48.57
2022-08-17T05:05:49.847Z,47.93
2022-08-17T05:08:20.000Z,47.92
2022-08-17T05:10:48.545Z,48.11
2022-08-17T05:13:19.138Z,48.42
2022-08-17T05:15:48.244Z,48.59
2022-08-17T05:18:17.446Z,48.32
2022-08-17T05:20:45.258Z,48.68
2022-08-17T05:23:15.391Z,48.94
2022-08-17T05:25:48.367Z,48.64
2022-08-17T05:28:23.453Z,48.62
2022-08-17T05:30:57.974Z,48.54
2022-08-17T05:33:38.204Z,48.59
2022-08-17T05:36:10.868Z,48.89
2022-08-17T05:38:58.742Z,49.09
2022-08-17T05:41:26.124Z,49.14
2022-08-17T05:43:56.369Z,49.09
2022-08-17T05:46:27.521Z,49.26
2022-08-17T05:49:01.948Z,49.32
2022-08-17T05:51:48.161Z,49.31
2022-08-17T05:54:34.285Z,49.63
2022-08-17T05:57:20.961Z,49.52
2022-08-17T06:00:13.341Z,49.96
2022-08-17T06:02:48.659Z,50.72
2022-08-17T06:05:53.411Z,51.17
2022-08-17T06:08:37.951Z,52.03
2022-08-17T06:11:31.453Z,52.65
2022-08-17T06:14:30.306Z,53.24
2022-08-17T06:17:06.885Z,54.62
2022-08-17T06:19:49.917Z,55.93
2022-08-17T06:22:20.793Z,56.51
2022-08-17T06:24:57.486Z,56.91
2022-08-17T06:27:49.015Z,57.51
2022-08-17T06:30:28.276Z,57.60
2022-08-17T06:33:05.818Z,58.26
2022-08-17T06:36:02.647Z,58.55
2022-08-17T06:38:48.102Z,59.12
2022-08-17T06:41:24.389Z,59.25
2022-08-17T06:44:03.944Z,59.76
2022-08-17T06:46:37.581Z,59.51
2022-08-17T06:49:25.985Z,59.83
2022-08-17T06:52:08.049Z,60.37
2022-08-17T06:54:47.270Z,60.45
2022-08-17T06:57:28.384Z,60.47
2022-08-17T07:00:20.901Z,60.72
2022-08-17T07:02:55.303Z,60.75
2022-08-17T07:05:26.457Z,60.68
2022-08-17T07:08:34.998Z,60.61
2022-08-17T07:11:10.984Z,60.37
2022-08-17T07:13:51.746Z,60.44
2022-08-17T07:16:27.441Z,60.40
2022-08-17T07:18:56.776Z,60.63
2022-08-17T07:21:55.062Z,60.59
2022-08-17T07:24:52.514Z,61.00
2022-08-17T07:27:23.269Z,61.13
2022-08-17T07:30:03.672Z,61.08
2022-08-17T07:32:57.849Z,60.73
2022-08-17T07:35:44.087Z,60.93
2022-08-17T07:38:25.029Z,61.31
2022-08-17T07:41:02.633Z,61.68
2022-08-17T07:43:36.430Z,61.63
2022-08-17T07:46:39.199Z,61.78
2022-08-17T07:49:09.494Z,61.81
2022-08-17T07:51:39.370Z,61.91
2022-08-17T07:54:15.848Z,61.93
2022-08-17T07:56:49.124Z,61.96
2022-08-17T07:59:20.459Z,61.74
2022-08-17T08:02:07.172Z,61.60
2022-08-17T08:04:59.059Z,62.26
2022-08-17T08:07:21.916Z,62.52
2022-08-17T08:10:05.064Z,62.60
2022-08-17T08:12:46.896Z,62.48
2022-08-17T08:15:25.637Z,63.17
2022-08-17T08:17:59.359Z,63.07
2022-08-17T08:20:52.521Z,63.20
2022-08-17T08:23:29.544Z,62.50
2022-08-17T08:26:18.948Z,62.54
2022-08-17T08:29:14.070Z,63.07
2022-08-17T08:31:47.451Z,62.63
2022-08-17T08:35:01.801Z,61.79
2022-08-17T08:38:14.995Z,62.30
2022-08-17T08:41:00.832Z,61.22
2022-08-17T08:43:50.862Z,61.42
2022-08-17T08:46:47.065Z,62.86
2022-08-17T08:50:03.351Z,63.56
2022-08-17T08:52:51.348Z,63.15
2022-08-17T08:55:41.685Z,63.14
2022-08-17T08:58:31.521Z,63.54
2022-08-17T09:01:18.366Z,62.92
2022-08-17T09:03:54.817Z,62.65
2022-08-17T09:07:01.518Z,63.11
2022-08-17T09:09:36.067Z,63.17
2022-08-17T09:12:34.612Z,62.86
2022-08-17T09:15:27.528Z,62.44
2022-08-17T09:19:01.090Z,62.50
2022-08-17T09:21:14.321Z,61.94
2022-08-17T09:24:14.735Z,61.68
2022-08-17T09:27:01.048Z,61.17
2022-08-17T09:29:35.160Z,61.41
2022-08-17T09:32:15.032Z,60.62
2022-08-17T09:34:51.381Z,60.34
2022-08-17T09:38:01.165Z,59.96
2022-08-17T09:40:43.520Z,59.92
2022-08-17T09:43:40.099Z,59.51
2022-08-17T09:46:19.801Z,59.16
2022-08-17T09:48:50.299Z,59.05
2022-08-17T09:51:30.367Z,58.88
2022-08-17T09:54:14.709Z,58.19
2022-08-17T09:57:28.159Z,57.76
2022-08-17T10:00:16.089Z,57.70
2022-08-17T10:03:03.064Z,57.63
2022-08-17T10:05:57.151Z,57.72
2022-08-17T10:08:36.366Z,57.50
2022-08-17T10:11:16.774Z,57.62
2022-08-17T10:14:36.914Z,57.75
2022-08-17T10:17:15.891Z,57.38
2022-08-17T10:20:35.758Z,57.29
2022-08-17T10:23:25.311Z,57.27
2022-08-17T10:26:15.702Z,57.37
2022-08-17T10:29:09.832Z,57.20
2022-08-17T10:31:51.719Z,57.47
2022-08-17T10:34:32.277Z,57.47
2022-08-17T10:43:42.330Z,57.86
2022-08-17T11:04:59.764Z,55.84
2022-08-17T11:08:05.362Z,55.84
2022-08-17T11:10:59.050Z,55.63
2022-08-17T11:13:29.308Z,55.55
2022-08-17T11:16:09.036Z,54.82
2022-08-17T11:18:45.341Z,54.96
2022-08-17T11:22:00.476Z,54.92
2022-08-17T11:24:31.034Z,55.11
2022-08-17T11:27:16.447Z,56.57
2022-08-17T11:29:58.053Z,56.97
2022-08-17T11:32:47.196Z,54.79
2022-08-17T11:35:43.382Z,54.55
2022-08-17T11:38:36.979Z,54.11
2022-08-17T11:41:34.158Z,53.82
2022-08-17T11:44:22.617Z,53.02
2022-08-17T11:47:20.690Z,53.40
2022-08-17T11:50:25.700Z,53.13
2022-08-17T11:52:55.383Z,53.74
2022-08-17T11:55:39.363Z,53.85
2022-08-17T11:58:18.099Z,52.34
2022-08-17T12:00:45.326Z,52.04
2022-08-17T12:03:22.734Z,52.05
2022-08-17T12:05:53.547Z,52.33
2022-08-17T12:08:23.077Z,51.65
2022-08-17T12:11:19.030Z,51.96
2022-08-17T12:14:11.616Z,52.19
2022-08-17T12:16:42.707Z,52.61
2022-08-17T12:19:21.075Z,52.56
2022-08-17T12:22:16.539Z,53.10
2022-08-17T12:25:02.587Z,54.06
2022-08-17T12:28:04.476Z,54.16
2022-08-17T12:30:22.205Z,54.21
2022-08-17T12:32:50.117Z,54.33
2022-08-17T12:35:29.866Z,54.22
2022-08-17T12:37:58.070Z,54.27
2022-08-17T12:40:28.860Z,53.66
2022-08-17T12:43:32.963Z,54.30
2022-08-17T12:46:13.300Z,53.76
2022-08-17T12:48:58.837Z,54.29
2022-08-17T12:51:29.200Z,55.11
2022-08-17T12:53:56.837Z,52.64
2022-08-17T12:56:24.255Z,50.92
2022-08-17T12:58:55.640Z,50.47
2022-08-17T13:01:25.204Z,50.07
2022-08-17T13:03:55.212Z,49.78
2022-08-17T13:06:35.778Z,49.15
2022-08-17T13:09:17.994Z,48.86
2022-08-17T13:11:51.850Z,48.38
2022-08-17T13:14:19.969Z,47.98
2022-08-17T13:16:55.592Z,47.86
2022-08-17T13:19:40.433Z,47.10
2022-08-17T13:22:12.692Z,46.80
2022-08-17T13:24:53.156Z,46.42
2022-08-17T13:27:23.838Z,46.11
2022-08-17T13:29:56.430Z,45.83
2022-08-17T13:32:36.593Z,45.44
2022-08-17T13:35:40.998Z,45.32
2022-08-17T13:38:13.139Z,44.99
2022-08-17T13:40:50.096Z,44.72
2022-08-17T13:43:50.579Z,44.58
2022-08-17T13:46:21.791Z,44.62
2022-08-17T13:49:04.674Z,44.86
2022-08-17T13:51:42.888Z,45.15
2022-08-17T13:54:23.488Z,45.49
2022-08-17T13:57:04.195Z,45.73
2022-08-17T13:59:53.020Z,45.77
2022-08-17T14:02:28.343Z,45.90
2022-08-17T14:04:57.806Z,46.00
2022-08-17T14:07:33.735Z,45.98
2022-08-17T14:10:17.501Z,46.28
2022-08-17T14:12:45.554Z,46.34
2022-08-17T14:15:15.842Z,46.37
2022-08-17T14:17:43.524Z,46.23
2022-08-17T14:20:12.828Z,46.32
2022-08-17T14:22:44.918Z,46.19
2022-08-17T14:25:15.590Z,46.30
2022-08-17T14:27:52.390Z,46.33
2022-08-17T14:30:25.703Z,46.42
2022-08-17T14:32:55.123Z,46.38
2022-08-17T14:35:24.089Z,46.23
2022-08-17T14:37:52.109Z,46.42
2022-08-17T14:40:24.462Z,46.29
2022-08-17T14:42:54.438Z,46.35
2022-08-17T14:45:31.983Z,46.29
2022-08-17T14:48:04.145Z,46.30
2022-08-17T14:50:32.087Z,46.31
2022-08-17T14:53:05.139Z,45.57
2022-08-17T14:55:32.913Z,45.32
2022-08-17T14:58:00.298Z,45.28
2022-08-17T15:00:28.609Z,45.73
2022-08-17T15:02:58.832Z,45.39
2022-08-17T15:05:33.837Z,45.84
2022-08-17T15:08:03.083Z,46.00
2022-08-17T15:10:30.685Z,46.83
2022-08-17T15:12:58.518Z,47.10
2022-08-17T15:15:26.428Z,47.44
2022-08-17T15:17:53.706Z,46.74
2022-08-17T15:20:25.010Z,46.54
2022-08-17T15:22:56.031Z,46.84
2022-08-17T15:25:25.416Z,47.41
2022-08-17T15:27:53.752Z,47.61
2022-08-17T15:30:21.746Z,47.80
2022-08-17T15:32:54.485Z,47.51
2022-08-17T15:35:28.369Z,47.10
2022-08-17T15:38:11.033Z,47.19
2022-08-17T15:40:50.749Z,47.60
2022-08-17T15:43:26.665Z,47.80
2022-08-17T15:46:18.840Z,47.94
2022-08-17T15:48:51.575Z,48.20
2022-08-17T15:51:26.625Z,48.40
2022-08-17T15:54:17.241Z,48.40
2022-08-17T15:56:47.087Z,48.87
2022-08-17T15:59:14.413Z,48.72
2022-08-17T16:03:02.190Z,48.82
2022-08-17T16:04:30.824Z,48.74
2022-08-17T16:07:00.088Z,48.67
2022-08-17T16:09:28.158Z,48.86
2022-08-17T16:11:56.377Z,49.03
2022-08-17T16:14:33.558Z,49.69
2022-08-17T16:17:04.601Z,49.48
2022-08-17T16:19:34.347Z,49.86
2022-08-17T16:22:02.709Z,49.85
2022-08-17T16:24:30.802Z,49.65
2022-08-17T16:28:13.784Z,49.70
2022-08-17T16:30:41.536Z,49.66
2022-08-17T16:33:11.488Z,49.67
2022-08-17T16:35:39.212Z,49.83
2022-08-17T16:38:07.165Z,49.58
2022-08-17T16:40:36.406Z,49.10
2022-08-17T16:43:10.655Z,49.51
2022-08-17T16:45:40.809Z,49.23
2022-08-17T16:48:09.655Z,49.38
2022-08-17T16:50:37.472Z,49.23
2022-08-17T16:53:06.571Z,49.41
2022-08-17T16:55:35.756Z,49.46
2022-08-17T16:58:08.849Z,49.52
2022-08-17T17:00:37.459Z,49.63
2022-08-17T17:03:19.585Z,49.58
2022-08-17T17:06:07.139Z,49.77
2022-08-17T17:08:54.713Z,49.82
2022-08-17T17:11:45.185Z,49.71
2022-08-17T17:14:28.301Z,49.90
2022-08-17T17:17:13.912Z,50.27
2022-08-17T17:20:24.269Z,50.66
2022-08-17T17:23:08.880Z,50.69
2022-08-17T17:25:50.973Z,51.07
2022-08-17T17:28:34.508Z,51.13
2022-08-17T17:31:14.303Z,51.30
2022-08-17T17:33:48.303Z,51.45
2022-08-17T17:36:56.495Z,51.48
2022-08-17T17:40:01.689Z,51.15
2022-08-17T17:42:31.749Z,51.35
2022-08-17T17:45:32.091Z,51.30
2022-08-17T17:47:59.378Z,51.23
2022-08-17T17:51:12.106Z,50.95
2022-08-17T17:53:52.861Z,51.16
2022-08-17T17:56:43.743Z,52.15
2022-08-17T17:59:32.910Z,54.35
2022-08-17T18:02:47.418Z,51.61
2022-08-17T18:05:19.656Z,50.32
2022-08-17T18:07:55.711Z,50.54
2022-08-17T18:10:47.437Z,50.98
2022-08-17T18:13:35.632Z,50.96
2022-08-17T18:16:10.533Z,50.72
2022-08-17T18:18:39.873Z,50.85
2022-08-17T18:21:21.205Z,50.81
2022-08-17T18:23:48.521Z,50.77
2022-08-17T18:26:34.480Z,50.86
2022-08-17T18:29:12.177Z,50.80
2022-08-17T18:31:39.674Z,50.72
2022-08-17T18:34:47.142Z,50.72
2022-08-17T18:37:31.893Z,50.50
2022-08-17T18:40:23.462Z,50.51
2022-08-17T18:43:11.559Z,50.47
2022-08-17T18:45:46.605Z,50.25
2022-08-17T18:48:22.979Z,50.41
2022-08-17T18:50:53.604Z,50.32
2022-08-17T18:53:33.558Z,50.30
2022-08-17T18:56:40.384Z,50.39
2022-08-17T18:59:27.203Z,50.34
2022-08-17T19:02:03.248Z,50.24
2022-08-17T19:04:35.055Z,50.24
2022-08-17T19:07:19.243Z,50.16
2022-08-17T19:09:52.777Z,50.01
2022-08-17T19:12:29.104Z,50.20
2022-08-17T19:14:58.277Z,50.14
2022-08-17T19:17:33.110Z,50.14
2022-08-17T19:20:10.356Z,50.25
2022-08-17T19:22:51.575Z,50.10
2022-08-17T19:25:24.612Z,50.17
2022-08-17T19:27:57.902Z,50.26
2022-08-17T19:30:25.549Z,50.44
2022-08-17T19:32:53.188Z,50.25
2022-08-17T19:35:24.593Z,50.25
2022-08-17T19:38:00.832Z,50.18
2022-08-17T19:40:58.531Z,50.16
2022-08-17T19:44:13.835Z,50.06
2022-08-17T19:46:56.382Z,50.17
2022-08-17T19:49:47.829Z,50.26
2022-08-17T19:52:15.113Z,50.14
2022-08-17T19:55:03.471Z,50.32
2022-08-17T19:57:56.950Z,50.24
2022-08-17T20:00:24.639Z,50.13
2022-08-17T20:03:20.001Z,50.33
2022-08-17T20:06:12.033Z,50.34
2022-08-17T20:08:48.824Z,50.35
2022-08-17T20:11:23.354Z,50.28
2022-08-17T20:14:04.599Z,50.22
2022-08-17T20:16:33.422Z,50.33
2022-08-17T20:19:06.139Z,50.22
2022-08-17T20:21:45.941Z,50.33
2022-08-17T20:24:25.214Z,50.23
2022-08-17T20:27:19.681Z,50.39
2022-08-17T20:30:29.822Z,50.29
2022-08-17T20:32:58.902Z,50.17
2022-08-17T20:35:33.320Z,50.21
2022-08-17T20:38:40.883Z,50.26
2022-08-17T20:41:12.708Z,50.31
2022-08-17T20:43:40.003Z,50.17
2022-08-17T20:46:29.017Z,50.31
2022-08-17T20:49:45.477Z,53.38
2022-08-17T20:52:19.362Z,54.21
2022-08-17T20:54:50.803Z,51.20
2022-08-17T20:57:33.333Z,50.23
2022-08-17T21:00:18.281Z,51.24
2022-08-17T21:02:49.694Z,53.72
2022-08-17T21:05:59.757Z,54.98
2022-08-17T21:08:37.199Z,51.89
2022-08-17T21:12:02.654Z,50.73
2022-08-17T21:14:24.551Z,53.26
2022-08-17T21:17:34.802Z,54.69
2022-08-17T21:20:34.660Z,52.91
2022-08-17T21:23:20.485Z,51.23
2022-08-17T21:25:53.584Z,50.43
2022-08-17T21:29:00.407Z,54.23
2022-08-17T21:31:44.168Z,55.19
2022-08-17T21:34:25.724Z,52.46
2022-08-17T21:36:53.469Z,51.08
2022-08-17T21:39:33.616Z,50.89
2022-08-17T21:42:01.570Z,51.78
2022-08-17T21:44:36.943Z,54.54
2022-08-17T21:47:24.635Z,55.50
2022-08-17T21:49:53.860Z,52.41
2022-08-17T21:52:24.531Z,51.46
2022-08-17T21:54:56.153Z,51.27
2022-08-17T21:57:29.658Z,54.87
2022-08-17T21:59:59.942Z,55.47
2022-08-17T22:02:33.688Z,53.00
2022-08-17T22:05:04.315Z,51.71
2022-08-17T22:07:58.823Z,51.34
2022-08-17T22:10:32.711Z,54.76
2022-08-17T22:13:03.422Z,55.48
2022-08-17T22:15:30.728Z,53.97
2022-08-17T22:18:01.678Z,52.14
2022-08-17T22:20:29.102Z,51.44
2022-08-17T22:23:17.616Z,53.88
2022-08-17T22:26:05.056Z,55.54
2022-08-17T22:28:46.431Z,55.10
2022-08-17T22:31:17.369Z,52.50
2022-08-17T22:33:46.916Z,51.81
2022-08-17T22:36:30.937Z,54.43
2022-08-17T22:39:22.616Z,55.49
2022-08-17T22:42:00.858Z,55.55
2022-08-17T22:44:28.229Z,52.63
2022-08-17T22:47:17.043Z,51.57
2022-08-17T22:49:57.684Z,53.67
2022-08-17T22:52:57.888Z,55.53
2022-08-17T22:55:45.172Z,56.34
2022-08-17T22:58:35.032Z,52.84
2022-08-17T23:01:25.971Z,51.56
2022-08-17T23:03:57.022Z,54.11
2022-08-17T23:06:24.498Z,55.44
2022-08-17T23:08:57.745Z,56.17
2022-08-17T23:11:36.629Z,53.01
2022-08-17T23:14:16.251Z,52.07
2022-08-17T23:16:43.584Z,52.52
2022-08-17T23:19:13.412Z,55.24
2022-08-17T23:21:41.621Z,56.37
2022-08-17T23:24:09.847Z,54.55
2022-08-17T23:26:39.313Z,52.39
2022-08-17T23:29:07.676Z,51.77
2022-08-17T23:31:37.581Z,54.99
2022-08-17T23:34:09.951Z,55.82
2022-08-17T23:36:38.049Z,56.49
2022-08-17T23:39:06.371Z,55.18
2022-08-17T23:41:38.411Z,55.14
2022-08-17T23:44:06.616Z,56.23
2022-08-17T23:46:34.784Z,55.56
2022-08-17T23:49:03.282Z,55.23
2022-08-17T23:51:36.430Z,55.51
2022-08-17T23:54:13.611Z,56.03
2022-08-17T23:56:46.585Z,55.59
2022-08-17T23:59:19.111Z,56.60
